createdAt,value
2018-11-13T00:01:34.591Z,40.57
2018-11-13T00:05:38.289Z,34.87
2018-11-13T00:09:42.006Z,33.97
2018-11-13T00:13:45.688Z,32.93
2018-11-13T00:17:49.376Z,31.87
2018-11-13T00:21:53.107Z,40.87
2018-11-13T00:25:56.839Z,33.70
2018-11-13T00:30:00.515Z,34.93
2018-11-13T00:34:04.223Z,34.00
2018-11-13T00:38:07.931Z,35.40
2018-11-13T00:42:11.660Z,36.50
2018-11-13T00:46:15.369Z,41.60
2018-11-13T00:50:20.209Z,35.53
2018-11-13T00:54:23.897Z,35.87
2018-11-13T00:58:27.590Z,37.27
2018-11-13T01:02:31.286Z,36.17
2018-11-13T01:06:34.955Z,40.20
2018-11-13T01:10:38.620Z,40.40
2018-11-13T01:14:42.313Z,37.13
2018-11-13T01:18:46.026Z,39.50
2018-11-13T01:22:49.704Z,40.03
2018-11-13T01:26:53.404Z,38.90
2018-11-13T01:30:57.094Z,39.40
2018-11-13T01:35:00.757Z,37.53
2018-11-13T01:39:07.084Z,36.17
2018-11-13T01:43:10.874Z,35.53
2018-11-13T01:47:14.578Z,36.40
2018-11-13T01:51:18.264Z,38.07
2018-11-13T01:55:22.322Z,35.23
2018-11-13T01:59:25.765Z,36.23
2018-11-13T02:03:29.484Z,36.93
2018-11-13T02:07:33.199Z,35.10
2018-11-13T02:11:36.968Z,35.43
2018-11-13T02:15:40.660Z,34.87
2018-11-13T02:19:44.319Z,37.13
2018-11-13T02:23:48.071Z,38.60
2018-11-13T02:27:51.816Z,44.50
2018-11-13T02:31:55.551Z,42.97
2018-11-13T02:35:59.252Z,40.63
2018-11-13T02:40:02.901Z,43.13
2018-11-13T02:44:06.946Z,39.10
2018-11-13T02:48:10.655Z,43.80
2018-11-13T02:52:14.428Z,50.00
2018-11-13T02:56:18.168Z,50.83
2018-11-13T03:00:22.367Z,50.70
2018-11-13T03:04:26.068Z,50.87
2018-11-13T03:08:29.828Z,55.47
2018-11-13T03:12:33.501Z,49.30
2018-11-13T03:16:37.170Z,45.17
2018-11-13T03:20:40.820Z,52.90
2018-11-13T03:24:44.520Z,50.10
2018-11-13T03:28:48.264Z,52.47
2018-11-13T03:32:52.153Z,55.83
2018-11-13T03:36:55.812Z,51.90
2018-11-13T03:40:59.463Z,51.60
2018-11-13T03:45:03.208Z,64.20
2018-11-13T03:49:07.086Z,63.80
2018-11-13T03:53:10.895Z,67.47
2018-11-13T03:57:14.797Z,65.67
2018-11-13T04:01:18.471Z,62.30
2018-11-13T04:05:22.750Z,56.70
2018-11-13T04:09:26.537Z,53.17
2018-11-13T04:13:30.453Z,60.20
2018-11-13T04:17:34.221Z,56.47
2018-11-13T04:21:38.310Z,57.10
2018-11-13T04:25:42.058Z,56.33
2018-11-13T04:29:45.784Z,62.40
2018-11-13T04:33:49.548Z,63.63
2018-11-13T04:37:53.271Z,64.17
2018-11-13T04:41:56.980Z,63.73
2018-11-13T04:46:00.720Z,62.80
2018-11-13T04:50:04.635Z,62.17
2018-11-13T04:54:08.352Z,58.20
2018-11-13T04:58:12.122Z,57.97
2018-11-13T05:02:15.804Z,56.97
2018-11-13T05:06:19.502Z,53.97
2018-11-13T05:10:23.566Z,55.17
2018-11-13T05:14:27.312Z,52.97
2018-11-13T05:18:31.048Z,51.40
2018-11-13T05:22:34.745Z,47.60
2018-11-13T05:26:38.452Z,49.80
2018-11-13T05:30:42.188Z,46.37
2018-11-13T05:34:45.879Z,56.50
2018-11-13T05:38:49.597Z,52.63
2018-11-13T05:42:53.267Z,37.80
2018-11-13T05:46:56.977Z,38.97
2018-11-13T05:51:00.688Z,44.40
2018-11-13T05:55:04.618Z,39.57
2018-11-13T05:59:08.315Z,34.37
2018-11-13T06:03:12.028Z,33.83
2018-11-13T06:07:15.760Z,39.63
2018-11-13T06:11:19.451Z,34.03
2018-11-13T06:15:23.147Z,31.70
2018-11-13T06:19:27.104Z,39.23
2018-11-13T06:23:30.811Z,37.90
2018-11-13T06:27:34.491Z,39.97
2018-11-13T06:31:38.167Z,40.87
2018-11-13T06:35:41.933Z,40.23
2018-11-13T06:39:45.620Z,38.47
2018-11-13T06:43:49.306Z,41.47
2018-11-13T06:47:53.135Z,40.90
2018-11-13T06:51:57.299Z,38.67
2018-11-13T06:56:01.059Z,41.20
2018-11-13T07:00:05.153Z,44.10
2018-11-13T07:04:08.850Z,39.53
2018-11-13T07:08:12.610Z,38.80
2018-11-13T07:12:16.441Z,39.40
2018-11-13T07:16:20.136Z,36.00
2018-11-13T07:20:24.749Z,36.33
2018-11-13T07:24:28.437Z,36.63
2018-11-13T07:28:32.164Z,39.17
2018-11-13T07:32:35.898Z,32.67
2018-11-13T07:36:39.542Z,26.90
2018-11-13T07:40:43.371Z,30.90
2018-11-13T07:44:47.112Z,32.30
2018-11-13T07:48:50.787Z,27.93
2018-11-13T07:52:54.513Z,27.07
2018-11-13T07:56:58.209Z,24.37
2018-11-13T08:01:01.898Z,27.60
2018-11-13T08:05:06.793Z,25.13
2018-11-13T08:09:10.505Z,22.13
2018-11-13T08:13:14.269Z,19.13
2018-11-13T08:17:17.917Z,16.47
2018-11-13T08:21:21.632Z,18.33
2018-11-13T08:25:25.351Z,15.50
2018-11-13T08:29:29.216Z,18.93
2018-11-13T08:33:32.908Z,17.20
2018-11-13T08:37:36.573Z,14.23
2018-11-13T08:41:40.319Z,15.13
2018-11-13T08:45:44.033Z,12.93
2018-11-13T08:49:47.757Z,11.57
2018-11-13T08:53:51.514Z,13.23
2018-11-13T08:57:55.204Z,11.27
2018-11-13T09:01:58.904Z,11.27
2018-11-13T09:06:02.679Z,8.83
2018-11-13T09:10:08.591Z,11.80
2018-11-13T09:14:12.275Z,14.73
2018-11-13T09:18:15.972Z,10.17
2018-11-13T09:22:19.704Z,9.83
2018-11-13T09:26:23.399Z,8.63
2018-11-13T09:30:27.344Z,10.53
2018-11-13T09:34:30.835Z,8.07
2018-11-13T09:38:34.705Z,7.67
2018-11-13T09:42:38.735Z,6.40
2018-11-13T09:46:42.582Z,12.83
2018-11-13T09:50:46.555Z,8.70
2018-11-13T09:54:50.378Z,9.37
2018-11-13T09:58:54.270Z,9.87
2018-11-13T10:03:00.177Z,6.40
2018-11-13T10:07:03.252Z,6.60
2018-11-13T10:11:07.023Z,8.27
2018-11-13T10:15:13.357Z,15.07
2018-11-13T10:19:17.056Z,6.17
2018-11-13T10:23:20.807Z,5.73
2018-11-13T10:27:24.909Z,7.67
2018-11-13T10:31:29.106Z,5.87
2018-11-13T10:35:32.827Z,13.03
2018-11-13T10:39:36.548Z,6.53
2018-11-13T10:43:40.236Z,7.47
2018-11-13T10:47:43.985Z,8.60
2018-11-13T10:51:47.664Z,9.93
2018-11-13T10:55:51.434Z,7.70
2018-11-13T10:59:55.195Z,7.87
2018-11-13T11:04:02.908Z,7.53
2018-11-13T11:08:06.755Z,4.70
2018-11-13T11:12:10.426Z,7.67
2018-11-13T11:16:14.163Z,4.47
2018-11-13T11:20:17.872Z,6.70
2018-11-13T11:24:21.582Z,12.97
2018-11-13T11:28:25.361Z,3.50
2018-11-13T11:32:29.166Z,7.10
2018-11-13T11:36:32.869Z,7.73
2018-11-13T11:40:36.603Z,10.07
2018-11-13T11:44:40.331Z,6.37
2018-11-13T11:48:44.063Z,5.20
2018-11-13T11:52:47.768Z,8.00
2018-11-13T11:56:51.504Z,9.97
2018-11-13T12:00:55.299Z,4.97
2018-11-13T12:04:59.061Z,8.73
2018-11-13T12:09:02.824Z,5.10
2018-11-13T12:13:06.601Z,3.37
2018-11-13T12:17:10.341Z,3.27
2018-11-13T12:21:14.460Z,4.77
2018-11-13T12:25:20.163Z,3.53
2018-11-13T12:29:23.444Z,4.33
2018-11-13T12:33:27.156Z,7.90
2018-11-13T12:37:30.875Z,5.63
2018-11-13T12:41:34.561Z,6.80
2018-11-13T12:45:38.236Z,9.30
2018-11-13T12:49:41.936Z,6.73
2018-11-13T12:53:45.672Z,8.63
2018-11-13T12:57:49.418Z,5.60
2018-11-13T13:01:53.379Z,2.93
2018-11-13T13:05:56.811Z,5.40
2018-11-13T13:10:00.504Z,3.37
2018-11-13T13:14:09.408Z,4.93
2018-11-13T13:18:13.100Z,2.03
2018-11-13T13:22:16.862Z,5.07
2018-11-13T13:26:20.521Z,2.83
2018-11-13T13:30:25.456Z,2.27
2018-11-13T13:34:29.145Z,3.77
2018-11-13T13:38:34.629Z,4.30
2018-11-13T13:42:38.318Z,8.10
2018-11-13T13:46:42.085Z,2.10
2018-11-13T13:50:45.795Z,1.57
2018-11-13T13:54:49.589Z,1.50
2018-11-13T13:58:53.343Z,2.20
2018-11-13T14:02:57.094Z,1.70
2018-11-13T14:07:00.855Z,4.80
2018-11-13T14:11:04.701Z,3.60
2018-11-13T14:15:10.442Z,3.90
2018-11-13T14:19:14.137Z,2.90
2018-11-13T14:23:17.944Z,6.07
2018-11-13T14:27:21.720Z,3.03
2018-11-13T14:31:25.495Z,4.27
2018-11-13T14:35:29.307Z,5.47
2018-11-13T14:39:33.094Z,1.87
2018-11-13T14:43:36.871Z,3.87
2018-11-13T14:47:41.624Z,5.20
2018-11-13T14:51:45.451Z,3.83
2018-11-13T14:55:49.169Z,4.93
2018-11-13T14:59:52.895Z,5.03
2018-11-13T15:03:56.576Z,2.03
2018-11-13T15:08:04.363Z,4.17
2018-11-13T15:12:06.162Z,4.73
2018-11-13T15:16:09.891Z,3.93
2018-11-13T15:20:15.063Z,4.23
2018-11-13T15:24:18.931Z,6.47
2018-11-13T15:28:22.609Z,5.47
2018-11-13T15:32:26.345Z,4.77
2018-11-13T15:36:31.242Z,2.80
2018-11-13T15:40:34.997Z,5.67
2018-11-13T15:44:38.844Z,6.90
2018-11-13T15:48:42.695Z,6.33
2018-11-13T15:52:46.508Z,5.43
2018-11-13T15:56:50.284Z,8.33
2018-11-13T16:00:54.031Z,5.50
2018-11-13T16:04:57.742Z,5.77
2018-11-13T16:09:01.429Z,6.03
2018-11-13T16:13:05.298Z,6.77
2018-11-13T16:17:09.055Z,6.20
2018-11-13T16:21:12.815Z,5.00
2018-11-13T16:25:16.524Z,8.67
2018-11-13T16:29:20.216Z,5.63
2018-11-13T16:33:23.961Z,12.00
2018-11-13T16:37:27.695Z,7.33
2018-11-13T16:41:31.499Z,9.17
2018-11-13T16:45:35.527Z,7.87
2018-11-13T16:49:39.309Z,12.80
2018-11-13T16:53:48.358Z,13.77
2018-11-13T16:57:52.657Z,11.33
2018-11-13T17:01:56.417Z,6.90
2018-11-13T17:06:00.306Z,6.00
2018-11-13T17:10:04.011Z,3.87
2018-11-13T17:14:07.803Z,6.00
2018-11-13T17:18:13.290Z,6.67
2018-11-13T17:22:15.231Z,7.60
2018-11-13T17:26:18.923Z,9.13
2018-11-13T17:30:25.634Z,4.40
2018-11-13T17:34:29.350Z,12.40
2018-11-13T17:38:33.150Z,6.30
2018-11-13T17:42:36.893Z,6.17
2018-11-13T17:46:40.619Z,4.53
2018-11-13T17:50:44.405Z,5.33
2018-11-13T17:54:48.117Z,4.90
2018-11-13T17:58:51.832Z,7.17
2018-11-13T18:02:55.646Z,6.20
2018-11-13T18:06:59.580Z,7.37
2018-11-13T18:11:03.281Z,4.80
2018-11-13T18:15:11.635Z,5.27
2018-11-13T18:19:15.348Z,11.27
2018-11-13T18:23:19.144Z,5.30
2018-11-13T18:27:22.816Z,4.47
2018-11-13T18:31:26.492Z,6.27
2018-11-13T18:35:31.621Z,7.67
2018-11-13T18:39:35.352Z,9.10
2018-11-13T18:43:39.113Z,8.00
2018-11-13T18:47:42.811Z,11.50
2018-11-13T18:51:46.677Z,8.10
2018-11-13T18:55:50.429Z,8.43
2018-11-13T18:59:54.208Z,8.03
2018-11-13T19:03:57.902Z,7.08
2018-11-13T19:08:01.584Z,5.73
2018-11-13T19:12:05.645Z,6.42
2018-11-13T19:16:10.314Z,9.80
2018-11-13T19:20:17.385Z,6.75
2018-11-13T19:24:21.112Z,6.67
2018-11-13T19:28:24.857Z,13.18
2018-11-13T19:32:28.588Z,7.97
2018-11-13T19:36:32.370Z,5.08
2018-11-13T19:40:36.436Z,8.55
2018-11-13T19:44:40.201Z,9.10
2018-11-13T19:48:43.869Z,10.18
2018-11-13T19:52:47.642Z,6.97
2018-11-13T19:56:51.350Z,10.43
2018-11-13T20:00:55.097Z,8.40
2018-11-13T20:04:58.782Z,10.17
2018-11-13T20:09:02.552Z,9.45
2018-11-13T20:13:07.565Z,8.28
2018-11-13T20:17:11.332Z,7.10
2018-11-13T20:21:15.173Z,6.90
2018-11-13T20:25:20.377Z,9.13
2018-11-13T20:29:24.268Z,9.00
2018-11-13T20:33:28.057Z,8.60
2018-11-13T20:37:31.876Z,10.78
2018-11-13T20:41:35.579Z,10.18
2018-11-13T20:45:39.302Z,10.80
2018-11-13T20:49:43.004Z,10.68
2018-11-13T20:53:46.792Z,9.15
2018-11-13T20:57:50.491Z,8.03
2018-11-13T21:01:54.290Z,12.70
2018-11-13T21:05:59.108Z,10.75
2018-11-13T21:10:02.874Z,9.68
2018-11-13T21:14:06.620Z,12.15
2018-11-13T21:18:10.341Z,11.53
2018-11-13T21:22:14.073Z,12.93
2018-11-13T21:26:17.817Z,10.23
2018-11-13T21:30:22.269Z,9.90
2018-11-13T21:34:26.041Z,11.43
2018-11-13T21:38:29.865Z,11.43
2018-11-13T21:42:33.576Z,17.30
2018-11-13T21:46:37.601Z,13.07
2018-11-13T21:50:41.400Z,15.77
2018-11-13T21:54:45.108Z,16.12
2018-11-13T21:58:48.823Z,11.40
2018-11-13T22:02:54.449Z,12.13
2018-11-13T22:06:58.135Z,14.13
2018-11-13T22:11:01.982Z,14.33
2018-11-13T22:15:07.191Z,17.37
2018-11-13T22:19:11.308Z,17.13
2018-11-13T22:23:15.135Z,15.60
2018-11-13T22:27:18.878Z,15.40
2018-11-13T22:31:22.548Z,14.45
2018-11-13T22:35:26.244Z,16.03
2018-11-13T22:39:29.960Z,14.50
2018-11-13T22:43:33.801Z,16.23
2018-11-13T22:47:38.119Z,16.30
2018-11-13T22:51:41.856Z,14.38
2018-11-13T22:55:45.660Z,17.48
2018-11-13T22:59:49.504Z,15.23
2018-11-13T23:03:53.172Z,15.93
2018-11-13T23:07:56.929Z,17.13
2018-11-13T23:12:00.745Z,16.87
2018-11-13T23:16:04.472Z,15.18
2018-11-13T23:20:10.380Z,16.23
2018-11-13T23:24:14.097Z,16.87
2018-11-13T23:28:17.792Z,17.20
2018-11-13T23:32:21.511Z,19.65
2018-11-13T23:36:25.229Z,15.20
2018-11-13T23:40:29.800Z,16.75
2018-11-13T23:44:33.505Z,23.17
2018-11-13T23:48:37.212Z,17.92
2018-11-13T23:52:42.141Z,19.67
2018-11-13T23:56:45.850Z,22.70
